Time;durP1;ratioP1;P1;durP2;ratioP2;P2;SDS_P1;SDS_P2;PMS_P1;PMS_P2;Temp;Humidity;BMP_temperature;BMP_pressure;BME280_temperature;BME280_humidity;BME280_pressure;Samples;Min_cycle;Max_cycle;Signal;HPM_P1;HPM_P2
2020/12/06 00:01:00;;;;;;;;;;;3.90;74.30;;;;;;5076601;28;19917;-80
2020/12/06 00:03:25;;;;;;;;;;;3.80;74.20;;;;;;5058231;28;19912;-80
2020/12/06 00:05:51;;;;;;;;;;;3.80;74.30;;;;;;5074682;28;19912;-80
2020/12/06 00:08:17;;;;;;;;;;;3.80;74.30;;;;;;5073466;28;20005;-80
2020/12/06 00:10:43;;;;;;;;;;;3.80;74.30;;;;;;5074618;28;20358;-80
2020/12/06 00:13:08;;;;;;;;;;;3.80;74.30;;;;;;5074857;28;20361;-80
2020/12/06 00:15:34;;;;;;;;;;;3.80;74.40;;;;;;5074384;28;20361;-80
2020/12/06 00:17:59;;;;;;;;;;;3.80;75.00;;;;;;5075917;28;19948;-80
2020/12/06 00:20:25;;;;;;;;;;;3.80;74.40;;;;;;5074486;28;19917;-80
2020/12/06 00:22:50;;;;;;;;;;;3.80;74.40;;;;;;5058080;28;20003;-80
2020/12/06 00:25:16;;;;;;;;;;;3.80;74.40;;;;;;5084525;28;20272;-80
2020/12/06 00:27:41;;;;;;;;;;;3.80;74.40;;;;;;5077889;28;19918;-80
2020/12/06 00:30:10;;;;;;;;;;;3.80;74.50;;;;;;5096260;28;19919;-80
2020/12/06 00:32:36;;;;;;;;;;;3.80;74.50;;;;;;5095865;28;20441;-80
2020/12/06 00:35:02;;;;;;;;;;;3.80;74.60;;;;;;5078058;28;19908;-80
2020/12/06 00:37:27;;;;;;;;;;;3.80;74.60;;;;;;5095930;28;20311;-80
2020/12/06 00:39:53;;;;;;;;;;;3.80;74.70;;;;;;5096075;28;19938;-80
2020/12/06 00:42:18;;;;;;;;;;;3.70;74.60;;;;;;5061284;28;20406;-80
2020/12/06 00:44:44;;;;;;;;;;;3.70;74.60;;;;;;5077605;28;19919;-80
2020/12/06 00:47:09;;;;;;;;;;;3.70;74.70;;;;;;5077150;28;20274;-80
2020/12/06 00:49:35;;;;;;;;;;;3.70;74.70;;;;;;5095591;28;20285;-80
2020/12/06 00:52:00;;;;;;;;;;;3.70;74.70;;;;;;5095769;28;19934;-80
2020/12/06 00:54:26;;;;;;;;;;;3.70;74.70;;;;;;5095520;28;19922;-80
2020/12/06 00:56:55;;;;;;;;;;;3.70;74.60;;;;;;5077677;28;19912;-80
2020/12/06 00:59:20;;;;;;;;;;;3.80;74.70;;;;;;5077547;28;19920;-79
2020/12/06 01:01:46;;;;;;;;;;;3.70;74.70;;;;;;5077177;28;20287;-80
2020/12/06 01:04:11;;;;;;;;;;;3.80;74.70;;;;;;5060693;28;19912;-80
2020/12/06 01:06:37;;;;;;;;;;;3.80;74.70;;;;;;5077210;28;19912;-79
2020/12/06 01:09:03;;;;;;;;;;;3.80;74.70;;;;;;5095396;28;19963;-79
2020/12/06 01:11:28;;;;;;;;;;;3.80;75.30;;;;;;5077036;28;19908;-79
2020/12/06 01:13:54;;;;;;;;;;;3.70;74.60;;;;;;5060542;28;19912;-79
2020/12/06 01:16:19;;;;;;;;;;;3.70;74.70;;;;;;5077387;28;20325;-79
2020/12/06 01:18:45;;;;;;;;;;;3.70;74.70;;;;;;5076882;28;19966;-79
2020/12/06 01:21:11;;;;;;;;;;;3.70;74.70;;;;;;5077129;28;19920;-80
2020/12/06 01:23:36;;;;;;;;;;;3.70;74.70;;;;;;5076728;28;20357;-79
2020/12/06 01:26:02;;;;;;;;;;;3.70;74.70;;;;;;5095083;28;19930;-79
2020/12/06 01:28:27;;;;;;;;;;;3.70;74.70;;;;;;5094826;28;19912;-79
2020/12/06 01:30:53;;;;;;;;;;;3.70;74.70;;;;;;5095152;28;19920;-79
2020/12/06 01:33:18;;;;;;;;;;;3.70;74.70;;;;;;5059629;28;19916;-79
2020/12/06 01:35:44;;;;;;;;;;;3.70;74.70;;;;;;5094184;28;19912;-79
2020/12/06 01:38:09;;;;;;;;;;;3.70;74.70;;;;;;5059904;28;19920;-79
2020/12/06 01:40:41;;;;;;;;;;;3.70;74.80;;;;;;5076154;28;19916;-79
2020/12/06 01:43:07;;;;;;;;;;;3.60;74.70;;;;;;5094742;28;19947;-79
2020/12/06 01:45:33;;;;;;;;;;;3.70;74.80;;;;;;5076178;28;19908;-79
2020/12/06 01:47:58;;;;;;;;;;;3.70;74.80;;;;;;5076519;28;19916;-79
2020/12/06 01:50:24;;;;;;;;;;;3.60;74.80;;;;;;5094752;28;19915;-79
2020/12/06 01:52:49;;;;;;;;;;;3.60;74.80;;;;;;5094522;28;20301;-79
2020/12/06 01:55:15;;;;;;;;;;;3.60;74.90;;;;;;5076673;28;19916;-79
2020/12/06 01:57:41;;;;;;;;;;;3.60;74.90;;;;;;5094018;28;19912;-79
2020/12/06 02:00:07;;;;;;;;;;;3.60;74.90;;;;;;5075275;28;19916;-79
2020/12/06 02:02:33;;;;;;;;;;;3.60;74.90;;;;;;5094263;28;20345;-79
2020/12/06 02:04:58;;;;;;;;;;;3.60;74.90;;;;;;5094262;28;19908;-79
2020/12/06 02:07:26;;;;;;;;;;;3.60;74.90;;;;;;5075513;28;20422;-79
2020/12/06 02:09:51;;;;;;;;;;;3.60;74.90;;;;;;5093959;28;19908;-79
2020/12/06 02:12:17;;;;;;;;;;;3.60;74.90;;;;;;5094212;28;19958;-79
2020/12/06 02:14:42;;;;;;;;;;;3.60;75.00;;;;;;5075845;28;20381;-79
2020/12/06 02:17:08;;;;;;;;;;;3.60;75.00;;;;;;5059420;28;19916;-79
2020/12/06 02:19:33;;;;;;;;;;;3.60;75.00;;;;;;5075630;28;19916;-79
2020/12/06 02:21:59;;;;;;;;;;;3.60;75.00;;;;;;5075978;28;19916;-79
2020/12/06 02:24:24;;;;;;;;;;;3.60;75.00;;;;;;5075502;28;20353;-79
2020/12/06 02:26:51;;;;;;;;;;;3.60;75.00;;;;;;5075711;28;19916;-79
2020/12/06 02:29:17;;;;;;;;;;;3.60;75.00;;;;;;5075802;28;19908;-79
2020/12/06 02:31:43;;;;;;;;;;;3.60;75.00;;;;;;5093544;28;19915;-79
2020/12/06 02:34:09;;;;;;;;;;;3.60;75.00;;;;;;5075793;28;19912;-79
2020/12/06 02:36:35;;;;;;;;;;;3.60;75.00;;;;;;5093441;28;19919;-78
2020/12/06 02:39:00;;;;;;;;;;;3.60;75.00;;;;;;5093565;28;20285;-79
2020/12/06 02:41:36;;;;;;;;;;;3.50;75.00;;;;;;5075745;28;19918;-79
2020/12/06 02:44:02;;;;;;;;;;;3.60;75.00;;;;;;5093651;28;19909;-79
2020/12/06 02:46:28;;;;;;;;;;;3.50;75.00;;;;;;5075164;28;19908;-78
2020/12/06 02:48:54;;;;;;;;;;;3.50;75.00;;;;;;5075467;28;19918;-79
2020/12/06 02:51:19;;;;;;;;;;;3.50;75.00;;;;;;5058901;28;19916;-79
2020/12/06 02:53:44;;;;;;;;;;;3.50;75.00;;;;;;5075238;28;19912;-79
2020/12/06 02:56:10;;;;;;;;;;;3.50;75.00;;;;;;5094019;28;19916;-79
2020/12/06 02:58:35;;;;;;;;;;;3.50;75.00;;;;;;5075110;28;19966;-78
2020/12/06 03:01:01;;;;;;;;;;;3.50;75.00;;;;;;5075341;28;19919;-79
2020/12/06 03:03:27;;;;;;;;;;;3.50;75.10;;;;;;5075378;28;19916;-78
2020/12/06 03:05:52;;;;;;;;;;;3.50;75.10;;;;;;5075108;28;20021;-79
2020/12/06 03:08:18;;;;;;;;;;;3.50;75.10;;;;;;5075288;28;19919;-78
2020/12/06 03:10:44;;;;;;;;;;;3.50;75.10;;;;;;5074663;28;19912;-79
2020/12/06 03:13:09;;;;;;;;;;;3.50;75.10;;;;;;5075311;28;19998;-79
2020/12/06 03:15:35;;;;;;;;;;;3.50;75.10;;;;;;5092962;28;19955;-78
2020/12/06 03:18:00;;;;;;;;;;;3.50;75.10;;;;;;5075281;28;19923;-78
2020/12/06 03:20:26;;;;;;;;;;;3.50;75.10;;;;;;5058235;28;20487;-79
2020/12/06 03:22:51;;;;;;;;;;;3.50;75.10;;;;;;5075168;28;19936;-78
2020/12/06 03:25:17;;;;;;;;;;;3.50;75.10;;;;;;5074868;28;20611;-78
2020/12/06 03:27:42;;;;;;;;;;;3.50;75.10;;;;;;5074808;28;19955;-78
2020/12/06 03:30:07;;;;;;;;;;;3.50;75.20;;;;;;5054918;28;19970;-78
2020/12/06 03:32:33;;;;;;;;;;;3.50;75.20;;;;;;5072598;28;20343;-78
2020/12/06 03:34:58;;;;;;;;;;;3.50;75.20;;;;;;5055180;28;19914;-78
2020/12/06 03:37:24;;;;;;;;;;;3.50;75.10;;;;;;5072955;28;19916;-78
2020/12/06 03:39:49;;;;;;;;;;;3.40;75.10;;;;;;5072502;28;20313;-78
2020/12/06 03:42:15;;;;;;;;;;;3.40;75.70;;;;;;5054888;28;19951;-78
2020/12/06 03:44:41;;;;;;;;;;;3.50;75.20;;;;;;5076030;28;19912;-78
2020/12/06 03:47:06;;;;;;;;;;;3.50;75.20;;;;;;5093014;28;19966;-78
2020/12/06 03:49:32;;;;;;;;;;;3.40;75.10;;;;;;5057761;28;19913;-78
2020/12/06 03:51:58;;;;;;;;;;;3.40;75.10;;;;;;5092929;28;19957;-78
2020/12/06 03:54:23;;;;;;;;;;;3.50;75.20;;;;;;5074660;28;19916;-78
2020/12/06 03:56:49;;;;;;;;;;;3.40;75.20;;;;;;5092383;28;20322;-78
2020/12/06 03:59:14;;;;;;;;;;;3.50;75.20;;;;;;5074751;28;19920;-78
2020/12/06 04:01:40;;;;;;;;;;;3.40;75.20;;;;;;5074360;28;20007;-79
2020/12/06 04:04:06;;;;;;;;;;;3.40;75.20;;;;;;5092899;28;20007;-78
2020/12/06 04:06:31;;;;;;;;;;;3.40;75.20;;;;;;5092565;28;19948;-78
2020/12/06 04:08:57;;;;;;;;;;;3.40;75.20;;;;;;5074886;28;20388;-78
2020/12/06 04:11:22;;;;;;;;;;;3.40;75.20;;;;;;5073486;28;20353;-78
2020/12/06 04:13:48;;;;;;;;;;;3.40;75.20;;;;;;5091891;28;19923;-78
2020/12/06 04:16:13;;;;;;;;;;;3.40;75.20;;;;;;5092510;28;19919;-78
2020/12/06 04:18:38;;;;;;;;;;;3.40;75.20;;;;;;5074170;28;19962;-78
2020/12/06 04:21:04;;;;;;;;;;;3.40;75.20;;;;;;5092526;28;20357;-78
2020/12/06 04:23:29;;;;;;;;;;;3.40;75.20;;;;;;5077163;28;19926;-78
2020/12/06 04:25:55;;;;;;;;;;;3.40;75.20;;;;;;5066140;23;19947;-80
2020/12/06 04:28:20;;;;;;;;;;;3.40;75.20;;;;;;5095347;28;19924;-81
2020/12/06 04:30:46;;;;;;;;;;;3.40;75.20;;;;;;5086225;28;20387;-81
2020/12/06 04:33:11;;;;;;;;;;;3.40;75.30;;;;;;5096178;28;19959;-80
2020/12/06 04:35:37;;;;;;;;;;;3.40;75.30;;;;;;5095582;28;19916;-80
2020/12/06 04:38:03;;;;;;;;;;;3.40;75.30;;;;;;5078011;28;20404;-80
2020/12/06 04:40:29;;;;;;;;;;;3.40;75.30;;;;;;5077502;28;19965;-80
2020/12/06 04:42:54;;;;;;;;;;;3.30;75.30;;;;;;5077220;28;19912;-80
2020/12/06 04:45:20;;;;;;;;;;;3.40;75.40;;;;;;5077607;28;20369;-80
2020/12/06 04:47:46;;;;;;;;;;;3.30;75.30;;;;;;5077352;28;19919;-80
2020/12/06 04:50:15;;;;;;;;;;;3.30;75.30;;;;;;5095243;28;20396;-80
2020/12/06 04:52:44;;;;;;;;;;;3.30;75.40;;;;;;5094852;28;20319;-80
2020/12/06 04:55:13;;;;;;;;;;;3.30;75.30;;;;;;5057285;28;19921;-80
2020/12/06 04:57:39;;;;;;;;;;;3.30;75.30;;;;;;5056917;28;20023;-80
2020/12/06 05:00:09;;;;;;;;;;;3.30;75.30;;;;;;5061148;28;20101;-80
2020/12/06 05:02:37;;;;;;;;;;;3.30;75.30;;;;;;5093913;28;20434;-81
2020/12/06 05:05:03;;;;;;;;;;;3.40;75.40;;;;;;5095186;28;19908;-80
2020/12/06 05:07:30;;;;;;;;;;;3.30;75.30;;;;;;5095106;28;20007;-80
2020/12/06 05:09:56;;;;;;;;;;;3.30;75.30;;;;;;5074991;28;20369;-80
2020/12/06 05:12:21;;;;;;;;;;;3.30;75.30;;;;;;5095257;28;20083;-80
2020/12/06 05:14:47;;;;;;;;;;;3.30;75.40;;;;;;5043107;28;19995;-80
2020/12/06 05:17:14;;;;;;;;;;;3.30;75.40;;;;;;5095252;28;19954;-80
2020/12/06 05:19:39;;;;;;;;;;;3.30;75.40;;;;;;5076421;28;20369;-80
2020/12/06 05:22:05;;;;;;;;;;;3.30;75.40;;;;;;5076833;28;20011;-80
2020/12/06 05:24:30;;;;;;;;;;;3.30;75.40;;;;;;5076316;28;20011;-80
2020/12/06 05:26:56;;;;;;;;;;;3.30;75.40;;;;;;5075874;28;19912;-80
2020/12/06 05:29:21;;;;;;;;;;;3.30;75.40;;;;;;5076841;28;19923;-80
2020/12/06 05:31:47;;;;;;;;;;;3.30;75.40;;;;;;5059637;28;20366;-81
2020/12/06 05:34:12;;;;;;;;;;;3.30;75.40;;;;;;5094909;28;19919;-81
2020/12/06 05:36:41;;;;;;;;;;;3.30;75.40;;;;;;5086412;28;19920;-81
2020/12/06 05:39:07;;;;;;;;;;;3.30;75.40;;;;;;5073024;28;20388;-80
2020/12/06 05:41:32;;;;;;;;;;;3.30;75.40;;;;;;5094817;28;19997;-81
2020/12/06 05:44:00;;;;;;;;;;;3.30;75.40;;;;;;5094432;28;19915;-81
2020/12/06 05:46:26;;;;;;;;;;;3.30;75.40;;;;;;5094901;28;19909;-80
2020/12/06 05:48:51;;;;;;;;;;;3.30;75.40;;;;;;5076269;28;19939;-81
2020/12/06 05:51:17;;;;;;;;;;;3.20;75.40;;;;;;5076593;28;19938;-80
2020/12/06 05:53:43;;;;;;;;;;;3.30;75.40;;;;;;5076199;28;20005;-81
2020/12/06 05:56:08;;;;;;;;;;;3.20;75.40;;;;;;5059855;28;19920;-80
2020/12/06 05:58:34;;;;;;;;;;;3.20;75.40;;;;;;5094240;28;19908;-80
2020/12/06 06:01:03;;;;;;;;;;;3.30;75.50;;;;;;5076541;28;19912;-81
2020/12/06 06:03:29;;;;;;;;;;;3.30;75.50;;;;;;5076394;28;19908;-81
2020/12/06 06:05:55;;;;;;;;;;;3.20;75.50;;;;;;5075972;28;20571;-81
2020/12/06 06:08:24;;;;;;;;;;;3.20;75.50;;;;;;5094291;28;19908;-81
2020/12/06 06:11:03;;;;;;;;;;;3.20;75.60;;;;;;5075364;28;19908;-82
2020/12/06 06:13:32;;;;;;;;;;;3.20;75.60;;;;;;5076318;28;19961;-81
2020/12/06 06:15:57;;;;;;;;;;;3.20;75.50;;;;;;5077627;28;19995;-81
2020/12/06 06:18:23;;;;;;;;;;;3.20;75.60;;;;;;5093750;28;19939;-81
2020/12/06 06:20:49;;;;;;;;;;;3.20;75.50;;;;;;5075596;28;20007;-81
2020/12/06 06:23:14;;;;;;;;;;;3.20;75.60;;;;;;5094277;28;19958;-81
2020/12/06 06:25:40;;;;;;;;;;;3.20;75.60;;;;;;5072128;28;19924;-81
2020/12/06 06:28:05;;;;;;;;;;;3.20;75.60;;;;;;5075058;28;19916;-88
2020/12/06 06:30:33;;;;;;;;;;;3.20;75.60;;;;;;5058504;28;22157;-87
2020/12/06 06:33:11;;;;;;;;;;;3.20;75.60;;;;;;5058226;28;19912;-88
2020/12/06 06:35:41;;;;;;;;;;;3.20;75.60;;;;;;5074308;28;20265;-88
2020/12/06 06:38:07;;;;;;;;;;;3.20;75.60;;;;;;5074372;28;19974;-87
2020/12/06 06:40:32;;;;;;;;;;;3.20;75.60;;;;;;5076292;28;20093;-87
2020/12/06 06:43:02;;;;;;;;;;;3.20;75.60;;;;;;5077159;28;19960;-87
2020/12/06 06:45:28;;;;;;;;;;;3.20;75.60;;;;;;5072323;28;19916;-86
2020/12/06 06:47:54;;;;;;;;;;;3.20;75.60;;;;;;5074215;28;19909;-87
2020/12/06 06:50:20;;;;;;;;;;;3.20;75.80;;;;;;5074053;28;19958;-87
2020/12/06 06:52:46;;;;;;;;;;;3.20;75.80;;;;;;5073831;28;19912;-87
2020/12/06 06:55:11;;;;;;;;;;;3.20;75.80;;;;;;5072821;28;19960;-87
2020/12/06 06:57:39;;;;;;;;;;;3.20;75.90;;;;;;5073504;28;19913;-87
2020/12/06 07:00:05;;;;;;;;;;;3.20;75.90;;;;;;5072535;28;20003;-87
2020/12/06 07:02:37;;;;;;;;;;;3.20;75.90;;;;;;5072627;28;19955;-86
2020/12/06 07:05:12;;;;;;;;;;;3.20;75.90;;;;;;5066638;28;20020;-87
2020/12/06 07:07:44;;;;;;;;;;;3.20;76.00;;;;;;5053448;28;19908;-87
2020/12/06 07:10:20;;;;;;;;;;;3.20;76.00;;;;;;5052332;28;19913;-86
2020/12/06 07:12:45;;;;;;;;;;;3.20;76.00;;;;;;5053354;28;19909;-87
2020/12/06 07:15:11;;;;;;;;;;;3.20;76.00;;;;;;5058238;28;20445;-86
2020/12/06 07:17:37;;;;;;;;;;;3.20;75.90;;;;;;5054830;28;19912;-85
2020/12/06 07:20:04;;;;;;;;;;;3.20;75.90;;;;;;5053302;28;20351;-86
2020/12/06 07:22:29;;;;;;;;;;;3.20;75.90;;;;;;5052522;28;19912;-86
2020/12/06 07:24:55;;;;;;;;;;;3.20;75.90;;;;;;5060069;28;19931;-86
2020/12/06 07:27:20;;;;;;;;;;;3.20;75.90;;;;;;5073371;28;19917;-86
2020/12/06 07:29:46;;;;;;;;;;;3.20;75.90;;;;;;5055287;28;19958;-87
2020/12/06 07:32:12;;;;;;;;;;;3.20;75.90;;;;;;5072668;28;19938;-83
2020/12/06 07:34:37;;;;;;;;;;;3.20;75.90;;;;;;5042059;28;19916;-83
2020/12/06 07:37:03;;;;;;;;;;;3.20;75.90;;;;;;5054495;28;20258;-82
2020/12/06 07:39:28;;;;;;;;;;;3.20;75.90;;;;;;5064869;28;19954;-82
2020/12/06 07:41:54;;;;;;;;;;;3.20;75.90;;;;;;5092669;28;19916;-82
2020/12/06 07:44:19;;;;;;;;;;;3.30;75.90;;;;;;5089622;28;19966;-83
2020/12/06 07:46:58;;;;;;;;;;;3.30;75.90;;;;;;5054431;28;19919;-83
2020/12/06 07:49:23;;;;;;;;;;;3.30;75.90;;;;;;5072782;28;19954;-83
2020/12/06 07:51:48;;;;;;;;;;;3.30;75.90;;;;;;5054672;28;19912;-83
2020/12/06 07:54:14;;;;;;;;;;;3.30;75.80;;;;;;5054665;28;19966;-83
2020/12/06 07:56:41;;;;;;;;;;;3.30;75.80;;;;;;5073722;28;20353;-82
2020/12/06 07:59:23;;;;;;;;;;;3.30;75.80;;;;;;5073425;28;19919;-82
2020/12/06 08:01:49;;;;;;;;;;;3.30;75.90;;;;;;5095855;28;20353;-82
2020/12/06 08:04:18;;;;;;;;;;;3.30;75.80;;;;;;5096280;28;20469;-82
2020/12/06 08:06:46;;;;;;;;;;;3.30;75.80;;;;;;5091010;28;19912;-82
2020/12/06 08:09:13;;;;;;;;;;;3.30;75.80;;;;;;5096130;28;20331;-82
2020/12/06 08:11:41;;;;;;;;;;;3.30;75.80;;;;;;5081291;28;19912;-82
2020/12/06 08:14:07;;;;;;;;;;;3.30;75.80;;;;;;5076037;28;19917;-82
2020/12/06 08:16:33;;;;;;;;;;;3.30;75.80;;;;;;5088693;28;19923;-82
2020/12/06 08:18:59;;;;;;;;;;;3.30;75.80;;;;;;5075725;28;19920;-82
2020/12/06 08:21:36;;;;;;;;;;;3.30;75.80;;;;;;5096250;28;19916;-82
2020/12/06 08:24:01;;;;;;;;;;;3.30;75.80;;;;;;5096009;28;19915;-82
2020/12/06 08:26:36;;;;;;;;;;;3.40;75.90;;;;;;5078162;28;20281;-82
2020/12/06 08:29:01;;;;;;;;;;;3.30;75.90;;;;;;5096040;28;19973;-82
2020/12/06 08:31:27;;;;;;;;;;;3.40;75.90;;;;;;5096373;28;20357;-83
2020/12/06 08:33:52;;;;;;;;;;;3.40;75.90;;;;;;5076780;28;19920;-83
2020/12/06 08:36:24;;;;;;;;;;;3.30;75.90;;;;;;5095116;28;19916;-83
2020/12/06 08:38:50;;;;;;;;;;;3.40;76.00;;;;;;5095742;28;19994;-83
2020/12/06 08:41:22;;;;;;;;;;;3.40;76.00;;;;;;5078230;28;19946;-83
2020/12/06 08:44:01;;;;;;;;;;;3.40;76.00;;;;;;5095846;28;19962;-82
2020/12/06 08:46:27;;;;;;;;;;;3.30;76.00;;;;;;5096071;28;19963;-83
2020/12/06 08:48:54;;;;;;;;;;;3.30;76.10;;;;;;5095641;28;19933;-83
2020/12/06 08:51:22;;;;;;;;;;;3.30;76.10;;;;;;5095578;28;19908;-83
2020/12/06 08:53:48;;;;;;;;;;;3.30;76.20;;;;;;5063322;28;19912;-83
2020/12/06 08:56:26;;;;;;;;;;;3.40;76.40;;;;;;5040908;28;20277;-83
2020/12/06 08:58:52;;;;;;;;;;;3.40;76.50;;;;;;5057099;28;20286;-83
2020/12/06 09:01:18;;;;;;;;;;;3.40;76.60;;;;;;5057553;28;19912;-83
2020/12/06 09:03:43;;;;;;;;;;;3.30;76.70;;;;;;5086415;28;19912;-83
2020/12/06 09:06:18;;;;;;;;;;;3.40;76.90;;;;;;5056790;28;19912;-83
2020/12/06 09:08:44;;;;;;;;;;;3.30;77.40;;;;;;5091179;28;19940;-83
2020/12/06 09:11:27;;;;;;;;;;;3.30;78.00;;;;;;5094934;28;19908;-83
2020/12/06 09:13:53;;;;;;;;;;;3.40;78.00;;;;;;5057089;28;20003;-84
2020/12/06 09:16:18;;;;;;;;;;;3.30;78.20;;;;;;5057339;28;20419;-83
2020/12/06 09:18:44;;;;;;;;;;;3.40;78.10;;;;;;5081183;28;19912;-81
2020/12/06 09:21:10;;;;;;;;;;;3.40;78.00;;;;;;5071748;28;20373;-82
2020/12/06 09:23:38;;;;;;;;;;;3.40;77.90;;;;;;5095423;28;20012;-84
2020/12/06 09:26:04;;;;;;;;;;;3.50;77.80;;;;;;5060925;28;19920;-82
2020/12/06 09:28:30;;;;;;;;;;;3.50;77.80;;;;;;5074978;28;19913;-84
2020/12/06 09:30:55;;;;;;;;;;;3.50;77.80;;;;;;5056661;28;19915;-84
2020/12/06 09:33:21;;;;;;;;;;;3.50;77.90;;;;;;5047384;28;20268;-83
2020/12/06 09:35:47;;;;;;;;;;;3.50;78.00;;;;;;5072462;28;19912;-85
2020/12/06 09:38:13;;;;;;;;;;;3.50;77.90;;;;;;5064240;28;19963;-83
2020/12/06 09:40:39;;;;;;;;;;;3.50;77.80;;;;;;5075866;28;20406;-84
2020/12/06 09:43:04;;;;;;;;;;;3.60;77.80;;;;;;5076219;28;19908;-84
2020/12/06 09:45:30;;;;;;;;;;;3.60;77.80;;;;;;5093968;28;19916;-84
2020/12/06 09:47:55;;;;;;;;;;;3.60;77.70;;;;;;5076239;28;19908;-83
2020/12/06 09:50:21;;;;;;;;;;;3.60;78.00;;;;;;5060047;28;20008;-84
2020/12/06 09:52:46;;;;;;;;;;;3.60;78.20;;;;;;5094112;28;20022;-82
2020/12/06 09:55:12;;;;;;;;;;;3.60;78.20;;;;;;5090444;28;19920;-83
2020/12/06 09:57:37;;;;;;;;;;;3.70;78.30;;;;;;5076208;28;19915;-84
2020/12/06 10:00:06;;;;;;;;;;;3.70;78.30;;;;;;5059658;28;20281;-85
2020/12/06 10:02:32;;;;;;;;;;;3.70;78.70;;;;;;5076444;28;20426;-84
2020/12/06 10:04:57;;;;;;;;;;;3.70;78.90;;;;;;5064671;28;19909;-84
2020/12/06 10:07:25;;;;;;;;;;;3.80;78.80;;;;;;5093489;28;19939;-84
2020/12/06 10:09:51;;;;;;;;;;;3.80;78.70;;;;;;5075767;28;19912;-84
2020/12/06 10:12:16;;;;;;;;;;;3.80;78.50;;;;;;5076319;28;19908;-84
2020/12/06 10:14:42;;;;;;;;;;;3.80;78.40;;;;;;5076020;28;19919;-84
2020/12/06 10:17:07;;;;;;;;;;;3.90;78.50;;;;;;5094451;28;20388;-84
2020/12/06 10:19:33;;;;;;;;;;;3.90;78.40;;;;;;5084017;28;19916;-84
2020/12/06 10:21:59;;;;;;;;;;;3.90;78.30;;;;;;5058948;28;19962;-84
2020/12/06 10:24:24;;;;;;;;;;;4.00;78.40;;;;;;5099897;23;19924;-81
2020/12/06 10:26:51;;;;;;;;;;;4.00;78.20;;;;;;5112456;28;19923;-81
2020/12/06 10:29:16;;;;;;;;;;;4.00;78.10;;;;;;5095212;28;19957;-81
2020/12/06 10:31:42;;;;;;;;;;;4.10;78.00;;;;;;5091282;28;19993;-82
2020/12/06 10:34:07;;;;;;;;;;;4.10;78.00;;;;;;5080752;28;20003;-81
2020/12/06 10:36:32;;;;;;;;;;;4.10;77.90;;;;;;5096274;28;19912;-81
2020/12/06 10:38:58;;;;;;;;;;;4.20;77.90;;;;;;5114071;28;19916;-82
2020/12/06 10:41:23;;;;;;;;;;;4.20;77.80;;;;;;5096160;28;19912;-81
2020/12/06 10:43:49;;;;;;;;;;;4.20;77.80;;;;;;5114078;28;20384;-81
2020/12/06 10:46:14;;;;;;;;;;;4.20;77.70;;;;;;5096040;28;19961;-81
2020/12/06 10:49:06;;;;;;;;;;;4.20;77.70;;;;;;5114377;28;19947;-81
2020/12/06 10:51:31;;;;;;;;;;;4.30;77.80;;;;;;5114445;28;19908;-81
2020/12/06 10:53:57;;;;;;;;;;;4.30;77.80;;;;;;5095746;28;19957;-81
2020/12/06 10:56:22;;;;;;;;;;;4.30;78.10;;;;;;5114070;28;19912;-81
2020/12/06 10:58:48;;;;;;;;;;;4.30;78.20;;;;;;5078752;28;20014;-81
2020/12/06 11:01:14;;;;;;;;;;;4.30;78.20;;;;;;5105606;28;20330;-81
2020/12/06 11:03:40;;;;;;;;;;;4.30;78.30;;;;;;5094956;28;19958;-81
2020/12/06 11:06:05;;;;;;;;;;;4.40;78.30;;;;;;5095468;28;19919;-81
2020/12/06 11:08:31;;;;;;;;;;;4.40;78.30;;;;;;5096001;28;19911;-81
2020/12/06 11:10:56;;;;;;;;;;;4.40;78.20;;;;;;5113645;28;19912;-82
2020/12/06 11:13:22;;;;;;;;;;;4.40;78.40;;;;;;5110979;28;20041;-81
2020/12/06 11:15:47;;;;;;;;;;;4.40;78.30;;;;;;5083694;28;19918;-81
2020/12/06 11:18:13;;;;;;;;;;;4.50;78.40;;;;;;5095368;28;19912;-82
2020/12/06 11:20:38;;;;;;;;;;;4.50;78.30;;;;;;5095786;28;19923;-81
2020/12/06 11:23:04;;;;;;;;;;;4.50;78.30;;;;;;5095376;28;20277;-81
2020/12/06 11:25:29;;;;;;;;;;;4.50;78.20;;;;;;5113504;28;19919;-82
2020/12/06 11:27:55;;;;;;;;;;;4.50;78.20;;;;;;5110710;28;20352;-83
2020/12/06 11:30:20;;;;;;;;;;;4.60;78.20;;;;;;5113855;28;19908;-83
2020/12/06 11:32:46;;;;;;;;;;;4.60;78.10;;;;;;5110721;28;19951;-83
2020/12/06 11:35:11;;;;;;;;;;;4.60;78.10;;;;;;5084984;28;20015;-83
2020/12/06 11:37:37;;;;;;;;;;;4.60;78.00;;;;;;5094513;28;19942;-83
2020/12/06 11:40:03;;;;;;;;;;;4.60;78.00;;;;;;5120050;28;20424;-83
2020/12/06 11:42:29;;;;;;;;;;;4.70;78.00;;;;;;5084840;28;19912;-82
2020/12/06 11:44:54;;;;;;;;;;;4.70;78.00;;;;;;5101244;28;20372;-81
2020/12/06 11:47:23;;;;;;;;;;;4.70;77.90;;;;;;5117777;28;20414;-82
2020/12/06 11:49:49;;;;;;;;;;;4.70;78.00;;;;;;5120384;28;19977;-82
2020/12/06 11:52:15;;;;;;;;;;;4.70;77.90;;;;;;5120126;28;20349;-82
2020/12/06 11:54:40;;;;;;;;;;;4.70;77.90;;;;;;5120233;28;19912;-82
2020/12/06 11:57:06;;;;;;;;;;;4.70;77.80;;;;;;5101618;28;19941;-82
2020/12/06 11:59:31;;;;;;;;;;;4.70;77.80;;;;;;5101618;28;19911;-81
2020/12/06 12:01:57;;;;;;;;;;;4.80;77.90;;;;;;5119694;28;19912;-81
2020/12/06 12:04:23;;;;;;;;;;;4.80;77.90;;;;;;5120026;28;19919;-83
2020/12/06 12:06:49;;;;;;;;;;;4.80;77.90;;;;;;5085036;28;19911;-83
2020/12/06 12:09:14;;;;;;;;;;;4.80;78.60;;;;;;5101532;28;19914;-83
2020/12/06 12:11:40;;;;;;;;;;;4.80;78.00;;;;;;5119456;28;19915;-83
2020/12/06 12:14:05;;;;;;;;;;;4.80;78.00;;;;;;5098281;28;19923;-83
2020/12/06 12:16:32;;;;;;;;;;;4.80;78.10;;;;;;5100078;28;19920;-83
2020/12/06 12:19:05;;;;;;;;;;;4.80;78.10;;;;;;5081366;28;19961;-83
2020/12/06 12:21:30;;;;;;;;;;;4.90;78.20;;;;;;5099231;28;20408;-83
2020/12/06 12:23:56;;;;;;;;;;;4.90;78.10;;;;;;5081834;28;20006;-83
2020/12/06 12:26:22;;;;;;;;;;;4.90;78.10;;;;;;5082550;28;20376;-84
2020/12/06 12:28:47;;;;;;;;;;;4.90;78.00;;;;;;5118546;28;19915;-84
2020/12/06 12:31:13;;;;;;;;;;;4.90;78.00;;;;;;5099716;28;19958;-84
2020/12/06 12:33:38;;;;;;;;;;;5.00;78.10;;;;;;5118753;28;20320;-84
2020/12/06 12:36:04;;;;;;;;;;;5.00;78.00;;;;;;5100083;28;19915;-84
2020/12/06 12:38:30;;;;;;;;;;;5.00;78.10;;;;;;5100267;28;19915;-84
2020/12/06 12:40:56;;;;;;;;;;;5.00;78.10;;;;;;5072648;28;19985;-84
2020/12/06 12:43:21;;;;;;;;;;;5.00;78.10;;;;;;5095484;28;20357;-84
2020/12/06 12:45:47;;;;;;;;;;;5.00;78.10;;;;;;5084385;28;19908;-84
2020/12/06 12:48:12;;;;;;;;;;;5.00;78.20;;;;;;5079757;28;20032;-84
2020/12/06 12:50:38;;;;;;;;;;;5.10;78.20;;;;;;5111091;28;20395;-84
2020/12/06 12:53:03;;;;;;;;;;;5.10;78.20;;;;;;5114854;28;19920;-84
2020/12/06 12:55:29;;;;;;;;;;;5.10;78.10;;;;;;5097215;28;20000;-84
2020/12/06 12:57:54;;;;;;;;;;;5.10;78.10;;;;;;5096605;28;19922;-84
2020/12/06 13:00:20;;;;;;;;;;;5.10;78.00;;;;;;5096681;28;20014;-84
2020/12/06 13:02:45;;;;;;;;;;;5.20;78.10;;;;;;5115107;28;19916;-84
2020/12/06 13:05:31;;;;;;;;;;;5.20;78.10;;;;;;5111435;28;19958;-83
2020/12/06 13:07:56;;;;;;;;;;;5.20;78.20;;;;;;5114531;28;19915;-84
2020/12/06 13:10:22;;;;;;;;;;;5.20;78.10;;;;;;5114598;28;20384;-84
2020/12/06 13:12:49;;;;;;;;;;;5.20;78.20;;;;;;5078474;28;19951;-84
2020/12/06 13:15:15;;;;;;;;;;;5.30;78.20;;;;;;5097595;28;19965;-84
2020/12/06 13:17:41;;;;;;;;;;;5.30;78.10;;;;;;5096935;28;19916;-84
2020/12/06 13:20:06;;;;;;;;;;;5.30;78.10;;;;;;5096914;28;19926;-84
2020/12/06 13:22:32;;;;;;;;;;;5.30;78.20;;;;;;5115851;28;20361;-84
2020/12/06 13:24:58;;;;;;;;;;;5.30;78.30;;;;;;5096391;28;19924;-84
2020/12/06 13:27:23;;;;;;;;;;;5.40;78.40;;;;;;5115400;28;19995;-84
2020/12/06 13:29:49;;;;;;;;;;;5.40;78.30;;;;;;5115342;28;19957;-84
2020/12/06 13:32:15;;;;;;;;;;;5.40;78.30;;;;;;5096683;28;19950;-84
2020/12/06 13:34:41;;;;;;;;;;;5.40;78.30;;;;;;5107860;28;19912;-83
2020/12/06 13:37:07;;;;;;;;;;;5.50;78.50;;;;;;5090647;28;19958;-84
2020/12/06 13:39:33;;;;;;;;;;;5.50;78.50;;;;;;5086155;28;19911;-83
2020/12/06 13:41:59;;;;;;;;;;;5.50;78.50;;;;;;5076265;28;19908;-84
2020/12/06 13:44:24;;;;;;;;;;;5.50;78.50;;;;;;5093732;28;20358;-83
2020/12/06 13:46:51;;;;;;;;;;;5.60;78.50;;;;;;5091580;28;19912;-83
2020/12/06 13:49:16;;;;;;;;;;;5.60;78.40;;;;;;5072488;28;19926;-84
2020/12/06 13:51:42;;;;;;;;;;;5.60;78.50;;;;;;5102302;28;20007;-83
2020/12/06 13:54:07;;;;;;;;;;;5.60;78.60;;;;;;5086414;28;20002;-84
2020/12/06 13:56:33;;;;;;;;;;;5.60;78.60;;;;;;5084757;28;20373;-83
2020/12/06 13:58:58;;;;;;;;;;;5.70;78.70;;;;;;5085818;28;20313;-84
2020/12/06 14:01:24;;;;;;;;;;;5.70;78.80;;;;;;5086149;28;20365;-83
2020/12/06 14:03:49;;;;;;;;;;;5.70;78.70;;;;;;5068126;28;20396;-83
2020/12/06 14:06:20;;;;;;;;;;;5.70;78.80;;;;;;5083163;28;20327;-83
2020/12/06 14:08:45;;;;;;;;;;;5.70;78.90;;;;;;5093300;28;19912;-83
2020/12/06 14:11:11;;;;;;;;;;;5.70;78.90;;;;;;5106522;28;19962;-84
2020/12/06 14:13:36;;;;;;;;;;;5.80;79.00;;;;;;5083596;28;19916;-84
2020/12/06 14:16:05;;;;;;;;;;;5.80;78.90;;;;;;5085944;28;19908;-84
2020/12/06 14:18:32;;;;;;;;;;;5.80;79.00;;;;;;5105094;28;20352;-84
2020/12/06 14:20:57;;;;;;;;;;;5.80;78.90;;;;;;5057811;28;20365;-83
2020/12/06 14:23:23;;;;;;;;;;;5.80;78.90;;;;;;5081358;28;19916;-84
2020/12/06 14:25:48;;;;;;;;;;;5.80;79.60;;;;;;5074101;28;19924;-84